createdAt,value
2023-01-11T00:00:50.088Z,97995.47
2023-01-11T00:03:20.326Z,97995.16
2023-01-11T00:05:50.537Z,97989.56
2023-01-11T00:08:22.445Z,97986.72
2023-01-11T00:10:53.107Z,97983.91
2023-01-11T00:13:23.140Z,97980.19
2023-01-11T00:15:54.298Z,97972.88
2023-01-11T00:18:24.549Z,97961.41
2023-01-11T00:20:54.129Z,97961.78
2023-01-11T00:23:24.049Z,97974.16
2023-01-11T00:25:53.734Z,97964.84
2023-01-11T00:28:23.139Z,97968.31
2023-01-11T00:30:54.275Z,97974.06
2023-01-11T00:33:24.489Z,97963.66
2023-01-11T00:35:54.800Z,97960.59
2023-01-11T00:38:42.876Z,97958.91
2023-01-11T00:41:27.450Z,97966.28
2023-01-11T00:44:15.064Z,97967.28
2023-01-11T00:47:04.688Z,97966.56
2023-01-11T00:49:34.779Z,97968.34
2023-01-11T00:52:09.326Z,97971.50
2023-01-11T00:54:39.880Z,97967.44
2023-01-11T00:57:10.405Z,97958.72
2023-01-11T00:59:41.129Z,97965.97
2023-01-11T01:02:13.281Z,97968.25
2023-01-11T01:04:43.849Z,97967.66
2023-01-11T01:07:13.937Z,97964.38
2023-01-11T01:09:44.073Z,97969.03
2023-01-11T01:12:34.877Z,97974.66
2023-01-11T01:15:04.442Z,97974.22
2023-01-11T01:17:36.061Z,97983.09
2023-01-11T01:20:07.113Z,97978.22
2023-01-11T01:22:37.095Z,97982.44
2023-01-11T01:25:07.582Z,97981.88
2023-01-11T01:27:37.818Z,97979.81
2023-01-11T01:30:09.534Z,97975.00
2023-01-11T01:32:40.717Z,97971.25
2023-01-11T01:35:12.160Z,97962.66
2023-01-11T01:37:42.675Z,97972.81
2023-01-11T01:40:14.503Z,97979.34
2023-01-11T01:42:45.169Z,97970.31
2023-01-11T01:45:24.306Z,97966.97
2023-01-11T01:47:59.213Z,97962.94
2023-01-11T01:50:32.336Z,97951.91
2023-01-11T01:53:04.633Z,97942.19
2023-01-11T01:55:37.289Z,97941.69
2023-01-11T01:58:10.657Z,97935.97
2023-01-11T02:00:41.704Z,97942.94
2023-01-11T02:03:13.978Z,97954.44
2023-01-11T02:05:43.443Z,97952.22
2023-01-11T02:08:18.614Z,97951.38
2023-01-11T02:10:48.403Z,97939.66
2023-01-11T02:13:18.659Z,97936.25
2023-01-11T02:16:08.163Z,97934.31
2023-01-11T02:18:40.369Z,97936.91
2023-01-11T02:21:23.938Z,97938.19
2023-01-11T02:24:06.246Z,97956.78
2023-01-11T02:27:00.819Z,97957.81
2023-01-11T02:29:51.735Z,97965.84
2023-01-11T02:32:28.109Z,97959.81
2023-01-11T02:35:04.970Z,97948.47
2023-01-11T02:37:40.097Z,97938.00
2023-01-11T02:40:16.129Z,97941.81
2023-01-11T02:43:09.908Z,97944.75
2023-01-11T02:45:49.341Z,97950.56
2023-01-11T02:48:24.929Z,97948.25
2023-01-11T02:51:00.549Z,97954.63
2023-01-11T02:53:34.733Z,97960.75
2023-01-11T02:56:08.574Z,97949.53
2023-01-11T02:58:40.875Z,97948.75
2023-01-11T03:01:12.193Z,97943.41
2023-01-11T03:03:41.896Z,97943.31
2023-01-11T03:06:17.419Z,97938.91
2023-01-11T03:09:16.633Z,97933.72
2023-01-11T03:12:14.855Z,97940.50
2023-01-11T03:14:52.817Z,97944.78
2023-01-11T03:17:40.198Z,97944.91
2023-01-11T03:20:13.296Z,97942.63
2023-01-11T03:22:52.016Z,97955.06
2023-01-11T03:25:25.519Z,97952.47
2023-01-11T03:27:59.825Z,97951.75
2023-01-11T03:30:36.612Z,97957.63
2023-01-11T03:33:12.383Z,97946.00
2023-01-11T03:35:45.792Z,97947.69
2023-01-11T03:38:19.623Z,97948.69
2023-01-11T03:40:51.593Z,97949.91
2023-01-11T03:43:22.696Z,97954.63
2023-01-11T03:45:56.204Z,97956.94
2023-01-11T03:48:32.711Z,97947.56
2023-01-11T03:51:03.879Z,97940.47
2023-01-11T03:53:37.253Z,97946.84
2023-01-11T03:56:11.008Z,97941.31
2023-01-11T03:58:40.961Z,97942.59
2023-01-11T04:01:11.287Z,97946.84
2023-01-11T04:03:42.943Z,97952.06
2023-01-11T04:06:13.894Z,97940.91
2023-01-11T04:08:43.955Z,97950.91
2023-01-11T04:11:13.878Z,97954.09
2023-01-11T04:13:43.938Z,97948.09
2023-01-11T04:16:14.202Z,97947.16
2023-01-11T04:18:46.038Z,97945.34
2023-01-11T04:21:16.311Z,97956.97
2023-01-11T04:23:46.780Z,97944.97
2023-01-11T04:26:17.832Z,97949.97
2023-01-11T04:28:47.595Z,97952.22
2023-01-11T04:31:18.083Z,97948.53
2023-01-11T04:33:49.194Z,97960.31
2023-01-11T04:36:19.333Z,97962.53
2023-01-11T04:38:49.113Z,97960.88
2023-01-11T04:41:36.499Z,97956.53
2023-01-11T04:44:06.788Z,97953.22
2023-01-11T04:46:36.759Z,97956.31
2023-01-11T04:49:08.045Z,97973.97
2023-01-11T04:51:38.257Z,97962.28
2023-01-11T04:54:08.770Z,97964.75
2023-01-11T04:56:38.759Z,97955.88
2023-01-11T04:59:08.373Z,97942.97
2023-01-11T05:01:38.674Z,97948.72
2023-01-11T05:04:12.660Z,97949.56
2023-01-11T05:06:43.587Z,97948.31
2023-01-11T05:09:15.053Z,97956.09
2023-01-11T05:11:45.436Z,97949.63
2023-01-11T05:14:15.209Z,97953.19
2023-01-11T05:16:45.378Z,97956.75
2023-01-11T05:19:17.181Z,97952.09
2023-01-11T05:21:47.449Z,97956.31
2023-01-11T05:24:18.126Z,97955.44
2023-01-11T05:26:50.310Z,97941.34
2023-01-11T05:29:21.216Z,97950.97
2023-01-11T05:31:51.595Z,97945.44
2023-01-11T05:34:23.138Z,97944.50
2023-01-11T05:36:52.964Z,97948.41
2023-01-11T05:39:24.325Z,97959.63
2023-01-11T05:41:54.049Z,97950.75
2023-01-11T05:44:41.417Z,97946.28
2023-01-11T05:47:11.369Z,97943.41
2023-01-11T05:49:42.757Z,97933.09
2023-01-11T05:52:13.108Z,97941.84
2023-01-11T05:54:43.797Z,97937.13
2023-01-11T05:57:14.573Z,97931.88
2023-01-11T05:59:44.755Z,97939.84
2023-01-11T06:02:14.633Z,97932.53
2023-01-11T06:04:46.911Z,97929.81
2023-01-11T06:07:16.657Z,97938.28
2023-01-11T06:09:47.273Z,97938.88
2023-01-11T06:12:17.247Z,97955.75
2023-01-11T06:14:47.479Z,97962.44
2023-01-11T06:17:17.350Z,97960.53
2023-01-11T06:19:49.878Z,97973.88
2023-01-11T06:22:19.564Z,97968.09
2023-01-11T06:24:49.836Z,97976.09
2023-01-11T06:27:19.702Z,97967.22
2023-01-11T06:29:50.145Z,97965.19
2023-01-11T06:32:20.207Z,97968.75
2023-01-11T06:34:52.179Z,97963.03
2023-01-11T06:37:22.416Z,97956.25
2023-01-11T06:39:53.102Z,97967.03
2023-01-11T06:42:22.948Z,97960.06
2023-01-11T06:44:52.902Z,97960.53
2023-01-11T06:47:23.368Z,97961.88
2023-01-11T06:49:54.662Z,97962.22
2023-01-11T06:52:24.984Z,97965.31
2023-01-11T06:54:54.652Z,97971.19
2023-01-11T06:57:24.864Z,97973.63
2023-01-11T06:59:54.857Z,97969.59
2023-01-11T07:02:25.248Z,97975.09
2023-01-11T07:04:57.113Z,97961.75
2023-01-11T07:07:26.884Z,97974.13
2023-01-11T07:09:57.140Z,97976.50
2023-01-11T07:12:26.957Z,97975.66
2023-01-11T07:14:56.343Z,97978.53
2023-01-11T07:17:25.773Z,97978.31
2023-01-11T07:19:57.468Z,97970.53
2023-01-11T07:22:27.283Z,97962.22
2023-01-11T07:24:56.913Z,97972.69
2023-01-11T07:27:27.228Z,97963.56
2023-01-11T07:30:00.236Z,97980.34
2023-01-11T07:32:30.244Z,97985.44
2023-01-11T07:35:01.856Z,97992.31
2023-01-11T07:37:33.340Z,98002.56
2023-01-11T07:40:03.921Z,97990.09
2023-01-11T07:42:51.388Z,97995.69
2023-01-11T07:45:21.962Z,97997.44
2023-01-11T07:47:53.200Z,97995.47
2023-01-11T07:50:24.632Z,97986.53
2023-01-11T07:52:54.524Z,97990.09
2023-01-11T07:55:25.163Z,97987.59
2023-01-11T07:57:57.603Z,97977.38
2023-01-11T08:00:28.988Z,97971.81
2023-01-11T08:02:59.584Z,97965.84
2023-01-11T08:05:31.229Z,97955.31
2023-01-11T08:08:00.873Z,97950.69
2023-01-11T08:10:30.829Z,97958.50
2023-01-11T08:13:17.886Z,97956.81
2023-01-11T08:15:48.235Z,97963.97
2023-01-11T08:18:19.885Z,97964.13
2023-01-11T08:20:54.814Z,97964.00
2023-01-11T08:23:26.130Z,97960.22
2023-01-11T08:25:59.625Z,97964.84
2023-01-11T08:28:30.128Z,97972.16
2023-01-11T08:31:00.364Z,97975.91
2023-01-11T08:33:30.640Z,97982.84
2023-01-11T08:36:06.833Z,97988.81
2023-01-11T08:38:36.615Z,97996.81
2023-01-11T08:41:11.050Z,98006.47
2023-01-11T08:43:41.761Z,98008.63
2023-01-11T08:46:12.812Z,98010.34
2023-01-11T08:48:42.720Z,98007.13
2023-01-11T08:51:14.998Z,98008.09
2023-01-11T08:53:45.173Z,98005.19
2023-01-11T08:56:15.242Z,98001.97
2023-01-11T08:58:45.252Z,98000.59
2023-01-11T09:01:14.996Z,98002.19
2023-01-11T09:03:45.300Z,97994.66
2023-01-11T09:06:19.243Z,97995.25
2023-01-11T09:08:49.998Z,97999.72
2023-01-11T09:11:37.419Z,97997.44
2023-01-11T09:14:08.466Z,98006.91
2023-01-11T09:16:38.167Z,97992.63
2023-01-11T09:19:08.520Z,97984.78
2023-01-11T09:21:39.819Z,97981.06
2023-01-11T09:24:09.907Z,97976.84
2023-01-11T09:26:41.992Z,97974.31
2023-01-11T09:29:12.452Z,97972.63
2023-01-11T09:31:42.647Z,97975.19
2023-01-11T09:34:13.690Z,97965.94
2023-01-11T09:36:47.759Z,97956.56
2023-01-11T09:39:20.960Z,97940.25
2023-01-11T09:42:07.663Z,97941.09
2023-01-11T09:44:51.813Z,97927.00
2023-01-11T09:47:36.964Z,97915.94
2023-01-11T09:50:13.859Z,97921.16
2023-01-11T09:52:47.670Z,97925.94
2023-01-11T09:55:24.900Z,97924.69
2023-01-11T09:58:29.566Z,97922.91
2023-01-11T10:01:07.465Z,97914.34
2023-01-11T10:04:06.556Z,97906.31
2023-01-11T10:06:45.129Z,97905.81
2023-01-11T10:18:33.920Z,97934.44
2023-01-11T10:18:48.772Z,97925.66
2023-01-11T10:21:16.224Z,97925.72
2023-01-11T10:23:50.835Z,97928.91
2023-01-11T10:26:32.539Z,97925.50
2023-01-11T10:29:22.755Z,97923.69
2023-01-11T10:32:34.843Z,97919.25
2023-01-11T10:35:48.325Z,97914.56
2023-01-11T10:38:44.086Z,97911.28
2023-01-11T10:41:26.491Z,97906.84
2023-01-11T10:44:12.701Z,97911.78
2023-01-11T10:46:46.017Z,97916.78
2023-01-11T10:49:34.536Z,97916.69
2023-01-11T10:52:21.784Z,97918.91
2023-01-11T10:54:56.248Z,97909.78
2023-01-11T10:57:39.539Z,97911.56
2023-01-11T11:00:36.836Z,97904.56
2023-01-11T11:03:24.789Z,97904.53
2023-01-11T11:05:59.471Z,97896.75
2023-01-11T11:08:33.219Z,97891.59
2023-01-11T11:11:08.814Z,97894.88
2023-01-11T11:13:49.299Z,97890.50
2023-01-11T11:16:34.573Z,97881.88
2023-01-11T11:19:05.210Z,97868.94
2023-01-11T11:21:39.308Z,97863.75
2023-01-11T11:24:16.328Z,97856.03
2023-01-11T11:26:49.219Z,97854.63
2023-01-11T11:29:29.403Z,97855.81
2023-01-11T11:32:02.565Z,97856.19
2023-01-11T11:34:33.083Z,97857.78
2023-01-11T11:37:02.897Z,97857.84
2023-01-11T11:39:34.553Z,97856.78
2023-01-11T11:42:10.501Z,97860.25
2023-01-11T11:44:40.786Z,97852.41
2023-01-11T11:47:18.128Z,97855.25
2023-01-11T11:49:48.610Z,97852.00
2023-01-11T11:52:20.475Z,97846.56
2023-01-11T11:54:56.625Z,97838.72
2023-01-11T11:57:29.130Z,97840.06
2023-01-11T12:00:05.988Z,97835.09
2023-01-11T12:02:47.199Z,97820.56
2023-01-11T12:05:18.099Z,97815.97
2023-01-11T12:07:55.060Z,97825.41
2023-01-11T12:10:27.302Z,97821.41
2023-01-11T12:12:58.944Z,97824.84
2023-01-11T12:15:30.320Z,97824.56
2023-01-11T12:18:26.109Z,97817.13
2023-01-11T12:20:56.496Z,97810.44
2023-01-11T12:23:28.410Z,97805.25
2023-01-11T12:26:22.764Z,97802.38
2023-01-11T12:29:37.188Z,97795.09
2023-01-11T12:32:24.223Z,97795.31
2023-01-11T12:35:26.397Z,97788.03
2023-01-11T12:38:08.349Z,97787.41
2023-01-11T12:40:47.219Z,97781.13
2023-01-11T12:43:34.535Z,97785.22
2023-01-11T12:46:10.694Z,97776.44
2023-01-11T12:48:55.901Z,97766.28
2023-01-11T12:51:39.234Z,97765.94
2023-01-11T12:54:28.313Z,97775.31
2023-01-11T12:57:09.007Z,97769.50
2023-01-11T13:00:03.871Z,97771.00
2023-01-11T13:03:13.479Z,97762.41
2023-01-11T13:05:54.099Z,97768.56
2023-01-11T13:08:32.898Z,97766.03
2023-01-11T13:11:12.207Z,97771.47
2023-01-11T13:13:53.063Z,97764.16
2023-01-11T13:16:27.964Z,97760.00
2023-01-11T13:19:02.062Z,97755.16
2023-01-11T13:21:34.886Z,97750.91
2023-01-11T13:24:10.393Z,97749.22
2023-01-11T13:26:42.742Z,97745.94
2023-01-11T13:29:16.971Z,97745.97
2023-01-11T13:31:48.555Z,97736.16
2023-01-11T13:34:22.078Z,97745.13
2023-01-11T13:36:55.479Z,97748.03
2023-01-11T13:39:31.175Z,97746.78
2023-01-11T13:42:05.581Z,97750.59
2023-01-11T13:44:39.041Z,97754.00
2023-01-11T13:47:11.072Z,97743.97
2023-01-11T13:49:51.460Z,97751.06
2023-01-11T13:52:24.562Z,97755.59
2023-01-11T13:55:03.194Z,97752.91
2023-01-11T13:57:38.992Z,97766.09
2023-01-11T14:00:20.593Z,97770.94
2023-01-11T14:02:54.782Z,97777.78
2023-01-11T14:05:25.456Z,97767.44
2023-01-11T14:08:09.768Z,97775.53
2023-01-11T14:10:49.049Z,97773.03
2023-01-11T14:13:51.338Z,97785.50
2023-01-11T14:16:26.696Z,97792.78
2023-01-11T14:19:01.644Z,97784.00
2023-01-11T14:21:40.895Z,97784.31
2023-01-11T14:24:12.528Z,97790.19
2023-01-11T14:27:02.005Z,97785.16
2023-01-11T14:30:00.055Z,97780.50
2023-01-11T14:33:00.661Z,97782.66
2023-01-11T14:35:53.952Z,97776.94
2023-01-11T14:38:42.128Z,97781.94
2023-01-11T14:41:37.886Z,97789.53
2023-01-11T14:44:19.656Z,97781.19
2023-01-11T14:47:08.720Z,97781.50
2023-01-11T14:49:53.761Z,97774.81
2023-01-11T14:52:39.130Z,97774.94
2023-01-11T14:55:18.117Z,97783.25
2023-01-11T14:58:06.910Z,97783.72
2023-01-11T15:01:15.058Z,97770.72
2023-01-11T15:03:58.106Z,97770.22
2023-01-11T15:06:33.641Z,97766.50
2023-01-11T15:09:04.007Z,97775.84
2023-01-11T15:11:39.276Z,97767.72
2023-01-11T15:14:26.158Z,97760.00
2023-01-11T15:17:15.797Z,97757.66
2023-01-11T15:19:49.450Z,97773.03
2023-01-11T15:22:28.005Z,97763.13
2023-01-11T15:25:01.384Z,97768.53
2023-01-11T15:27:35.565Z,97771.59
2023-01-11T15:30:09.321Z,97777.53
2023-01-11T15:32:41.823Z,97771.53
2023-01-11T15:35:37.581Z,97772.38
2023-01-11T15:38:14.367Z,97771.09
2023-01-11T15:40:46.916Z,97780.72
2023-01-11T15:43:50.845Z,97784.38
2023-01-11T15:46:54.698Z,97782.19
2023-01-11T15:49:45.740Z,97782.38
2023-01-11T15:52:53.112Z,97780.56
2023-01-11T15:55:58.658Z,97772.91
2023-01-11T15:58:58.233Z,97775.97
2023-01-11T16:01:29.751Z,97778.56
2023-01-11T16:04:06.769Z,97793.41
2023-01-11T16:06:45.521Z,97794.72
2023-01-11T16:09:46.221Z,97786.28
2023-01-11T16:12:57.610Z,97791.38
2023-01-11T16:15:38.730Z,97783.59
2023-01-11T16:18:16.277Z,97776.44
2023-01-11T16:20:57.537Z,97772.81
2023-01-11T16:23:28.151Z,97769.38
2023-01-11T16:25:59.448Z,97767.66
2023-01-11T16:28:30.242Z,97759.44
2023-01-11T16:31:02.829Z,97753.94
2023-01-11T16:33:35.569Z,97762.41
2023-01-11T16:36:14.173Z,97766.66
2023-01-11T16:39:02.172Z,97775.13
2023-01-11T16:41:36.686Z,97769.16
2023-01-11T16:44:09.884Z,97768.53
2023-01-11T16:47:09.301Z,97766.22
2023-01-11T16:49:40.989Z,97761.66
2023-01-11T16:52:38.103Z,97771.00
2023-01-11T16:55:40.375Z,97759.66
2023-01-11T16:58:22.128Z,97759.53
2023-01-11T17:01:00.685Z,97751.09
2023-01-11T17:03:31.926Z,97749.56
2023-01-11T17:06:16.134Z,97747.72
2023-01-11T17:08:47.412Z,97748.47
2023-01-11T17:11:27.188Z,97746.44
2023-01-11T17:14:11.998Z,97753.03
2023-01-11T17:16:43.504Z,97757.13
2023-01-11T17:19:17.926Z,97741.53
2023-01-11T17:21:54.156Z,97740.47
2023-01-11T17:24:26.342Z,97740.72
2023-01-11T17:26:58.932Z,97742.13
2023-01-11T17:29:31.491Z,97747.66
2023-01-11T17:32:03.465Z,97750.50
2023-01-11T17:34:35.774Z,97747.53
2023-01-11T17:37:10.941Z,97755.34
2023-01-11T17:39:45.083Z,97760.56
2023-01-11T17:42:33.005Z,97762.53
2023-01-11T17:45:15.222Z,97754.63
2023-01-11T17:47:47.753Z,97759.69
2023-01-11T17:50:30.575Z,97760.75
2023-01-11T17:53:16.374Z,97757.97
2023-01-11T17:55:54.402Z,97758.94
2023-01-11T17:58:28.656Z,97748.53
2023-01-11T18:01:20.354Z,97755.09
2023-01-11T18:03:52.475Z,97749.78
2023-01-11T18:06:28.525Z,97765.34
2023-01-11T18:09:00.732Z,97768.28
2023-01-11T18:11:32.809Z,97771.34
2023-01-11T18:14:05.083Z,97765.31
2023-01-11T18:16:35.644Z,97771.16
2023-01-11T18:19:25.225Z,97782.34
2023-01-11T18:21:56.676Z,97777.75
2023-01-11T18:24:34.897Z,97768.28
2023-01-11T18:27:24.463Z,97761.72
2023-01-11T18:29:55.074Z,97757.97
2023-01-11T18:32:25.569Z,97755.09
2023-01-11T18:34:56.668Z,97759.66
2023-01-11T18:37:26.913Z,97751.47
2023-01-11T18:39:59.451Z,97748.22
2023-01-11T18:42:32.944Z,97756.44
2023-01-11T18:45:02.654Z,97754.69
2023-01-11T18:47:32.943Z,97752.44
2023-01-11T18:50:02.690Z,97763.41
2023-01-11T18:52:33.086Z,97756.72
2023-01-11T18:55:04.314Z,97761.50
2023-01-11T18:57:34.293Z,97745.47
2023-01-11T19:00:04.869Z,97751.19
2023-01-11T19:02:42.547Z,97749.25
2023-01-11T19:05:15.092Z,97744.53
2023-01-11T19:07:45.253Z,97747.28
2023-01-11T19:10:19.257Z,97748.78
2023-01-11T19:12:49.588Z,97744.94
2023-01-11T19:15:20.259Z,97737.75
2023-01-11T19:17:49.796Z,97740.78
2023-01-11T19:20:20.098Z,97743.69
2023-01-11T19:22:50.485Z,97746.50
2023-01-11T19:25:23.073Z,97742.66
2023-01-11T19:27:54.978Z,97745.31
2023-01-11T19:30:24.769Z,97751.59
2023-01-11T19:32:55.188Z,97743.97
2023-01-11T19:35:25.428Z,97750.25
2023-01-11T19:37:56.077Z,97741.16
2023-01-11T19:40:27.816Z,97742.72
2023-01-11T19:42:58.289Z,97740.44
2023-01-11T19:45:27.909Z,97737.28
2023-01-11T19:47:58.381Z,97744.94
2023-01-11T19:50:28.618Z,97755.81
2023-01-11T19:52:58.503Z,97749.16
2023-01-11T19:55:29.649Z,97741.25
2023-01-11T19:57:59.282Z,97743.13
2023-01-11T20:00:29.138Z,97737.84
2023-01-11T20:03:05.240Z,97733.03
2023-01-11T20:05:35.432Z,97742.59
2023-01-11T20:08:05.559Z,97748.28
2023-01-11T20:10:37.319Z,97749.97
2023-01-11T20:13:06.996Z,97753.66
2023-01-11T20:15:39.863Z,97759.09
2023-01-11T20:18:10.174Z,97752.00
2023-01-11T20:20:39.913Z,97755.88
2023-01-11T20:23:09.941Z,97755.41
2023-01-11T20:25:41.435Z,97735.75
2023-01-11T20:28:11.387Z,97735.91
2023-01-11T20:30:42.629Z,97733.66
2023-01-11T20:33:12.037Z,97738.97
2023-01-11T20:35:42.158Z,97742.34
2023-01-11T20:38:12.552Z,97739.75
2023-01-11T20:40:43.983Z,97740.72
2023-01-11T20:43:15.490Z,97738.16
2023-01-11T20:45:45.887Z,97734.88
2023-01-11T20:48:15.973Z,97745.75
2023-01-11T20:50:46.453Z,97749.31
2023-01-11T20:53:16.807Z,97753.50
2023-01-11T20:55:50.333Z,97767.50
2023-01-11T20:58:19.798Z,97773.66
2023-01-11T21:00:49.669Z,97774.38
2023-01-11T21:03:20.809Z,97777.59
2023-01-11T21:05:53.813Z,97769.97
2023-01-11T21:08:23.901Z,97778.41
2023-01-11T21:10:55.599Z,97774.81
2023-01-11T21:13:25.458Z,97765.28
2023-01-11T21:15:58.005Z,97753.47
2023-01-11T21:18:27.525Z,97751.59
2023-01-11T21:20:57.718Z,97749.31
2023-01-11T21:23:27.699Z,97766.09
2023-01-11T21:26:00.687Z,97767.59
2023-01-11T21:28:30.459Z,97762.03
2023-01-11T21:31:05.874Z,97770.38
2023-01-11T21:33:37.429Z,97770.22
2023-01-11T21:36:09.683Z,97775.13
2023-01-11T21:38:39.605Z,97773.75
2023-01-11T21:41:12.751Z,97781.72
2023-01-11T21:43:43.773Z,97786.59
2023-01-11T21:46:14.030Z,97793.34
2023-01-11T21:48:43.693Z,97792.56
2023-01-11T21:51:16.883Z,97797.81
2023-01-11T21:53:47.559Z,97793.22
2023-01-11T21:56:19.584Z,97800.50
2023-01-11T21:58:50.592Z,97803.91
2023-01-11T22:01:21.850Z,97805.88
2023-01-11T22:03:51.855Z,97798.28
2023-01-11T22:06:22.964Z,97801.00
2023-01-11T22:08:52.709Z,97803.78
2023-01-11T22:11:24.176Z,97809.44
2023-01-11T22:13:53.729Z,97807.94
2023-01-11T22:16:23.858Z,97817.19
2023-01-11T22:18:53.655Z,97818.59
2023-01-11T22:21:23.410Z,97809.34
2023-01-11T22:23:56.556Z,97804.75
2023-01-11T22:26:30.295Z,97812.59
2023-01-11T22:29:18.710Z,97823.56
2023-01-11T22:31:51.548Z,97816.91
2023-01-11T22:34:22.475Z,97821.25
2023-01-11T22:36:53.988Z,97818.69
2023-01-11T22:39:24.448Z,97828.16
2023-01-11T22:41:57.183Z,97819.63
2023-01-11T22:44:26.939Z,97820.13
2023-01-11T22:46:56.766Z,97822.59
2023-01-11T22:49:27.486Z,97832.50
2023-01-11T22:51:58.428Z,97823.75
2023-01-11T22:54:28.857Z,97820.97
2023-01-11T22:57:00.370Z,97825.94
2023-01-11T22:59:31.743Z,97833.97
2023-01-11T23:02:02.169Z,97821.28
2023-01-11T23:04:33.775Z,97831.91
2023-01-11T23:07:03.788Z,97830.34
2023-01-11T23:09:33.496Z,97824.13
2023-01-11T23:12:22.433Z,97830.22
2023-01-11T23:14:53.012Z,97836.03
2023-01-11T23:17:23.474Z,97842.34
2023-01-11T23:19:54.536Z,97853.78
2023-01-11T23:22:24.764Z,97852.66
2023-01-11T23:24:54.795Z,97866.97
2023-01-11T23:27:26.529Z,97867.72
2023-01-11T23:29:57.258Z,97858.75
2023-01-11T23:32:29.173Z,97866.06
2023-01-11T23:34:59.128Z,97875.59
2023-01-11T23:37:29.115Z,97876.66
2023-01-11T23:39:59.333Z,97877.94
2023-01-11T23:42:29.943Z,97867.81
2023-01-11T23:44:59.754Z,97880.78
2023-01-11T23:47:30.079Z,97875.13
2023-01-11T23:50:02.236Z,97891.13
2023-01-11T23:52:34.533Z,97900.72
2023-01-11T23:55:05.104Z,97902.81
2023-01-11T23:57:36.959Z,97906.88
